createdAt,value
2019-02-09T07:15:26.572Z,3.50
2019-02-09T07:20:31.333Z,2.90
2019-02-09T07:25:35.875Z,2.40
2019-02-09T07:30:40.517Z,2.40
2019-02-09T07:35:45.067Z,2.40
2019-02-09T07:40:49.578Z,2.40
2019-02-09T07:45:53.333Z,2.10
2019-02-09T07:51:07.716Z,2.40
2019-02-09T07:56:12.601Z,2.23
2019-02-09T08:01:17.117Z,2.23
2019-02-09T08:06:21.929Z,2.37
2019-02-09T08:11:25.725Z,1.73
2019-02-09T08:16:30.283Z,1.70
2019-02-09T08:21:35.098Z,1.80
2019-02-09T08:26:39.802Z,1.60
2019-02-09T08:31:43.511Z,1.97
2019-02-09T08:36:47.875Z,1.50
2019-02-09T08:41:53.401Z,1.43
2019-02-09T08:46:58.688Z,1.50
2019-02-09T08:52:04.069Z,1.40
2019-02-09T08:57:09.665Z,1.57
2019-02-09T09:02:20.462Z,1.30
2019-02-09T09:07:21.861Z,1.37
2019-02-09T09:12:27.805Z,1.70
2019-02-09T09:17:34.044Z,1.60
2019-02-09T09:22:41.162Z,1.63
2019-02-09T09:27:46.852Z,1.57
2019-02-09T09:32:53.125Z,1.53
2019-02-09T09:37:58.260Z,1.50
2019-02-09T09:43:03.158Z,1.67
2019-02-09T09:48:12.608Z,1.70
2019-02-09T09:53:17.935Z,1.63
2019-02-09T09:58:23.237Z,1.60
2019-02-09T10:03:28.658Z,1.50
2019-02-09T10:08:33.992Z,1.70
2019-02-09T10:13:39.267Z,2.00
2019-02-09T10:18:45.517Z,1.73
2019-02-09T10:23:50.261Z,1.90
2019-02-09T10:28:55.290Z,1.63
2019-02-09T10:34:00.829Z,1.90
2019-02-09T10:39:08.882Z,1.90
2019-02-09T10:44:14.710Z,2.27
2019-02-09T10:49:19.547Z,2.00
2019-02-09T10:54:24.558Z,2.20
2019-02-09T10:59:29.495Z,2.03
2019-02-09T11:04:34.425Z,1.83
2019-02-09T11:09:39.536Z,1.90
2019-02-09T11:14:44.602Z,1.33
2019-02-09T11:19:50.985Z,1.80
2019-02-09T11:24:56.430Z,1.50
2019-02-09T11:30:01.545Z,1.70
2019-02-09T11:35:07.356Z,1.70
2019-02-09T11:40:13.227Z,1.70
2019-02-09T11:45:25.606Z,1.60
2019-02-09T11:50:31.452Z,2.10
2019-02-09T11:55:35.812Z,2.10
2019-02-09T12:00:45.850Z,1.87
2019-02-09T12:05:49.662Z,2.10
2019-02-09T12:10:53.811Z,2.00
2019-02-09T12:15:58.351Z,2.33
2019-02-09T12:21:02.748Z,2.40
2019-02-09T12:26:06.370Z,1.70
2019-02-09T12:31:09.802Z,1.80
2019-02-09T12:36:13.392Z,2.00
2019-02-09T12:41:18.261Z,1.83
2019-02-09T12:46:22.537Z,1.57
2019-02-09T12:51:26.962Z,1.30
2019-02-09T12:56:33.851Z,1.90
2019-02-09T13:01:39.814Z,2.10
2019-02-09T13:06:44.309Z,1.97
2019-02-09T13:11:49.118Z,1.83
2019-02-09T13:16:55.673Z,1.43
2019-02-09T13:22:00.005Z,1.43
2019-02-09T13:27:04.619Z,1.40
2019-02-09T13:32:10.062Z,1.40
2019-02-09T13:37:15.380Z,1.50
2019-02-09T13:42:20.391Z,1.47
2019-02-09T13:47:25.970Z,1.20
2019-02-09T13:52:31.174Z,1.30
2019-02-09T13:57:36.644Z,1.20
2019-02-09T14:02:41.044Z,1.33
2019-02-09T14:07:46.490Z,1.20
2019-02-09T14:12:51.944Z,1.00
2019-02-09T14:17:58.191Z,1.00
2019-02-09T14:23:04.570Z,1.00
2019-02-09T14:28:10.088Z,1.43
2019-02-09T14:33:15.196Z,1.00
2019-02-09T14:38:21.404Z,0.90
2019-02-09T14:43:28.100Z,1.13
2019-02-09T14:48:33.512Z,1.60
2019-02-09T14:53:39.055Z,1.20
2019-02-09T14:58:44.221Z,1.47
2019-02-09T15:03:48.957Z,1.40
2019-02-09T15:08:54.443Z,1.40
2019-02-09T15:14:00.043Z,1.10
2019-02-09T15:19:05.886Z,1.47
